Time;durP1;ratioP1;P1;durP2;ratioP2;P2;SDS_P1;SDS_P2;PMS_P1;PMS_P2;Temp;Humidity;BMP_temperature;BMP_pressure;BME280_temperature;BME280_humidity;BME280_pressure;Samples;Min_cycle;Max_cycle;Signal;HPM_P1;HPM_P2
2022/05/30 00:02:25;;;;;;;10.60;4.20;;;23.10;59.40;;;;;;215786;1293;22781;-58
2022/05/30 00:07:29;;;;;;;9.80;4.00;;;23.20;59.70;;;;;;216254;1290;22560;-59
2022/05/30 00:12:33;;;;;;;10.00;4.60;;;23.20;59.70;;;;;;216220;1290;22625;-63
2022/05/30 00:17:37;;;;;;;10.10;4.00;;;23.20;59.40;;;;;;216471;1291;22565;-61
2022/05/30 00:22:41;;;;;;;7.90;4.00;;;23.20;59.40;;;;;;216601;1290;25607;-59
2022/05/30 00:27:45;;;;;;;8.10;3.50;;;23.20;59.10;;;;;;216420;1290;22751;-60
2022/05/30 00:32:49;;;;;;;8.40;4.00;;;23.20;59.60;;;;;;216256;1290;22625;-60
2022/05/30 00:37:53;;;;;;;17.60;4.60;;;23.10;58.90;;;;;;216012;1290;22652;-59
2022/05/30 00:43:16;;;;;;;9.30;3.70;;;23.10;59.00;;;;;;216069;1291;25280;-60
2022/05/30 00:48:30;;;;;;;12.60;4.10;;;23.00;59.00;;;;;;218480;1290;23289;-59
2022/05/30 00:53:34;;;;;;;9.80;3.60;;;23.00;58.90;;;;;;217770;1290;25598;-59
2022/05/30 00:58:43;;;;;;;6.50;3.30;;;23.00;58.70;;;;;;216240;1290;22594;-62
2022/05/30 01:09:22;;;;;;;6.30;3.00;;;23.00;58.80;;;;;;216529;1290;22555;-59
2022/05/30 01:14:37;;;;;;;11.00;3.70;;;22.90;58.70;;;;;;216240;1290;22730;-60
2022/05/30 01:20:23;;;;;;;7.40;3.00;;;22.90;58.40;;;;;;216272;1290;25634;-61
2022/05/30 01:26:08;;;;;;;8.80;3.00;;;22.90;59.00;;;;;;215589;1293;24330;-60
2022/05/30 01:31:19;;;;;;;9.70;3.50;;;22.90;58.70;;;;;;216291;1290;25352;-59
2022/05/30 01:36:26;;;;;;;10.10;3.00;;;22.90;58.80;;;;;;216364;1290;22635;-65
2022/05/30 01:41:30;;;;;;;5.90;2.70;;;22.80;58.50;;;;;;216259;1291;22679;-61
2022/05/30 01:46:34;;;;;;;7.00;3.10;;;22.80;58.40;;;;;;216320;1290;23982;-61
2022/05/30 01:51:38;;;;;;;8.20;2.90;;;22.80;58.70;;;;;;216310;1290;24448;-57
2022/05/30 01:56:43;;;;;;;5.20;2.70;;;22.80;58.50;;;;;;216244;1290;22803;-60
2022/05/30 02:01:47;;;;;;;7.00;2.80;;;22.80;58.60;;;;;;216134;1290;24098;-57
2022/05/30 02:06:52;;;;;;;5.80;2.70;;;22.80;58.70;;;;;;216559;1290;22630;-60
2022/05/30 02:11:56;;;;;;;7.10;2.80;;;22.80;58.50;;;;;;216243;1290;24448;-61
2022/05/30 02:17:33;;;;;;;7.10;2.80;;;22.80;58.20;;;;;;215974;1290;26531;-61
2022/05/30 02:22:38;;;;;;;6.00;2.40;;;22.70;58.70;;;;;;216194;1290;25637;-60
2022/05/30 02:27:42;;;;;;;5.30;2.30;;;22.70;58.20;;;;;;216120;1290;22780;-62
2022/05/30 02:32:45;;;;;;;5.80;2.50;;;22.70;58.10;;;;;;215940;1290;22583;-58
2022/05/30 02:37:49;;;;;;;5.90;2.50;;;22.70;58.10;;;;;;215956;1290;25313;-60
2022/05/30 02:43:13;;;;;;;5.40;2.40;;;22.70;58.50;;;;;;216226;1290;22602;-59
2022/05/30 02:48:17;;;;;;;7.60;2.80;;;22.70;58.30;;;;;;216396;1290;24313;-59
2022/05/30 02:53:21;;;;;;;5.80;2.40;;;22.70;58.40;;;;;;216310;1290;25358;-61
2022/05/30 02:58:54;;;;;;;5.60;2.70;;;22.70;58.50;;;;;;215777;1290;22576;-60
2022/05/30 03:04:01;;;;;;;6.80;2.90;;;22.60;58.10;;;;;;216259;1290;22660;-60
2022/05/30 03:09:06;;;;;;;5.30;2.40;;;22.60;58.30;;;;;;215734;1293;22784;-60
2022/05/30 03:14:35;;;;;;;3.90;2.20;;;22.60;58.00;;;;;;216338;1290;22719;-60
2022/05/30 03:19:39;;;;;;;8.10;3.00;;;22.60;58.00;;;;;;216600;1290;22677;-61
2022/05/30 03:24:45;;;;;;;5.10;2.20;;;22.60;58.00;;;;;;216278;1290;26287;-60
2022/05/30 03:29:50;;;;;;;7.00;2.80;;;22.60;58.50;;;;;;216194;1290;22767;-60
2022/05/30 03:34:54;;;;;;;8.00;2.60;;;22.60;58.00;;;;;;216198;1290;25454;-60
2022/05/30 03:39:58;;;;;;;10.00;3.10;;;22.60;58.10;;;;;;216555;1290;26525;-58
2022/05/30 03:45:22;;;;;;;4.80;2.00;;;22.60;58.30;;;;;;216172;1290;23949;-60
2022/05/30 03:50:26;;;;;;;5.10;2.30;;;22.60;58.40;;;;;;216565;1290;25380;-59
2022/05/30 03:55:36;;;;;;;3.90;2.20;;;22.60;57.90;;;;;;216314;1290;22786;-60
2022/05/30 04:00:42;;;;;;;6.40;2.70;;;22.50;58.10;;;;;;216505;1290;26499;-59
2022/05/30 04:05:46;;;;;;;6.00;2.20;;;22.50;58.30;;;;;;216111;1290;23747;-60
2022/05/30 04:10:51;;;;;;;4.60;2.10;;;22.50;57.90;;;;;;216538;1290;22642;-60
2022/05/30 04:16:08;;;;;;;4.90;2.20;;;22.50;58.00;;;;;;216212;1290;22611;-58
2022/05/30 04:21:12;;;;;;;6.50;2.10;;;22.50;58.00;;;;;;216490;1290;22664;-65
2022/05/30 04:26:17;;;;;;;5.00;1.90;;;22.50;58.40;;;;;;216234;1290;22571;-60
2022/05/30 04:31:24;;;;;;;7.70;2.60;;;22.50;58.40;;;;;;216467;1290;22582;-61
2022/05/30 04:36:28;;;;;;;3.80;2.10;;;22.50;58.10;;;;;;216100;1290;22577;-62
2022/05/30 04:41:32;;;;;;;8.40;2.60;;;22.50;58.30;;;;;;216250;1290;22633;-61
2022/05/30 04:46:56;;;;;;;8.10;2.40;;;22.40;58.00;;;;;;216238;1290;22561;-60
2022/05/30 04:52:00;;;;;;;4.30;2.40;;;22.40;58.00;;;;;;216272;1290;22554;-59
2022/05/30 04:57:10;;;;;;;5.30;2.30;;;22.40;58.00;;;;;;216400;1290;22629;-61
2022/05/30 05:02:25;;;;;;;4.60;2.20;;;22.40;58.20;;;;;;216289;1290;25321;-58
2022/05/30 05:07:48;;;;;;;7.00;2.30;;;22.40;58.00;;;;;;216215;1290;24362;-62
2022/05/30 05:12:57;;;;;;;5.30;2.30;;;22.40;58.30;;;;;;215748;1293;25391;-61
2022/05/30 05:18:20;;;;;;;8.50;2.70;;;22.40;57.60;;;;;;216435;1290;24453;-62
2022/05/30 05:23:23;;;;;;;4.30;2.10;;;22.50;58.10;;;;;;216250;1290;22589;-63
2022/05/30 05:28:31;;;;;;;6.80;2.20;;;22.40;58.00;;;;;;216265;1290;22729;-64
2022/05/30 05:33:35;;;;;;;9.70;2.20;;;22.50;58.10;;;;;;215954;1293;22571;-62
2022/05/30 05:38:39;;;;;;;5.60;2.30;;;22.40;58.40;;;;;;216342;1290;23963;-60
2022/05/30 05:43:53;;;;;;;3.70;1.80;;;22.40;58.40;;;;;;216033;1290;25447;-62
2022/05/30 05:49:06;;;;;;;3.90;1.70;;;22.40;57.40;;;;;;216144;1290;22589;-60
2022/05/30 05:54:15;;;;;;;7.10;2.00;;;22.40;58.00;;;;;;216266;1290;24293;-63
2022/05/30 05:59:38;;;;;;;3.20;1.70;;;22.50;58.30;;;;;;215932;1290;25276;-62
2022/05/30 06:04:42;;;;;;;4.40;1.80;;;22.40;58.50;;;;;;216216;1291;22579;-65
2022/05/30 06:10:13;;;;;;;6.30;2.20;;;22.50;58.40;;;;;;216136;1290;22712;-62
2022/05/30 06:15:34;;;;;;;7.50;2.20;;;22.50;58.40;;;;;;216382;1290;23081;-61
2022/05/30 06:20:48;;;;;;;5.20;2.10;;;22.50;58.60;;;;;;215774;1290;24499;-61
2022/05/30 06:26:09;;;;;;;8.40;2.40;;;22.50;59.30;;;;;;216222;1291;24342;-62
2022/05/30 06:31:28;;;;;;;8.50;2.10;;;22.60;59.30;;;;;;216059;1290;22587;-62
2022/05/30 06:36:35;;;;;;;8.40;2.20;;;22.60;59.30;;;;;;215937;1290;24269;-60
2022/05/30 06:41:41;;;;;;;7.40;2.30;;;22.60;59.80;;;;;;216114;1290;22559;-61
2022/05/30 06:46:45;;;;;;;12.90;2.80;;;22.60;59.50;;;;;;216118;1290;24301;-61
2022/05/30 06:52:13;;;;;;;6.60;2.10;;;22.70;59.60;;;;;;216076;1290;26640;-63
2022/05/30 07:02:39;;;;;;;10.40;2.20;;;22.60;59.60;;;;;;217041;1290;22649;-61
2022/05/30 07:07:45;;;;;;;5.80;1.90;;;22.70;59.30;;;;;;215921;1291;25276;-62
2022/05/30 07:13:08;;;;;;;13.40;2.30;;;22.70;58.90;;;;;;215727;1291;25405;-61
2022/05/30 07:18:15;;;;;;;10.50;2.50;;;22.70;58.50;;;;;;216492;1291;22657;-63
2022/05/30 07:23:19;;;;;;;8.70;1.80;;;22.70;58.80;;;;;;216081;1291;259893;-60
2022/05/30 07:28:45;;;;;;;9.20;2.50;;;22.70;58.80;;;;;;216198;1290;22652;-61
2022/05/30 07:34:08;;;;;;;6.00;2.00;;;22.60;58.50;;;;;;215994;1294;24342;-62
2022/05/30 07:39:30;;;;;;;5.80;2.10;;;22.60;58.90;;;;;;216410;1290;22561;-61
2022/05/30 07:44:48;;;;;;;6.50;2.10;;;22.60;59.00;;;;;;216114;1290;23271;-59
2022/05/30 07:50:04;;;;;;;7.20;2.10;;;22.60;59.10;;;;;;216562;1290;25358;-61
2022/05/30 07:55:20;;;;;;;9.70;2.40;;;22.60;59.50;;;;;;216166;1290;22561;-60
2022/05/30 08:00:29;;;;;;;7.20;2.40;;;22.60;58.70;;;;;;216344;1290;23963;-61
2022/05/30 08:05:35;;;;;;;7.80;2.30;;;22.60;59.00;;;;;;216386;1290;25368;-61
2022/05/30 08:10:58;;;;;;;4.30;1.80;;;22.60;58.60;;;;;;216331;1290;24284;-61
2022/05/30 08:16:04;;;;;;;7.10;2.00;;;22.60;58.60;;;;;;216365;1290;24398;-59
2022/05/30 08:21:09;;;;;;;6.00;2.00;;;22.60;58.40;;;;;;216197;1290;23239;-62
2022/05/30 08:26:14;;;;;;;8.60;2.30;;;22.60;58.40;;;;;;216482;1290;25406;-62
2022/05/30 08:31:54;;;;;;;16.00;2.00;;;22.60;58.60;;;;;;216566;1290;22605;-60
2022/05/30 08:37:30;;;;;;;3.80;2.00;;;22.60;58.70;;;;;;216220;1290;22620;-63
2022/05/30 08:42:35;;;;;;;8.00;2.10;;;22.60;58.30;;;;;;216499;1291;22551;-63
2022/05/30 08:47:54;;;;;;;3.90;1.70;;;22.60;58.20;;;;;;216255;1290;25340;-61
2022/05/30 08:53:19;;;;;;;9.20;1.80;;;22.60;58.20;;;;;;216394;1290;25228;-63
2022/05/30 08:58:46;;;;;;;6.30;1.90;;;22.60;57.90;;;;;;216322;1290;25354;-62
2022/05/30 09:04:09;;;;;;;4.90;1.60;;;22.60;57.00;;;;;;216179;1290;22629;-65
2022/05/30 09:09:31;;;;;;;4.90;1.50;;;22.70;57.20;;;;;;215969;1293;26859;-61
2022/05/30 09:15:01;;;;;;;4.60;1.50;;;22.70;56.80;;;;;;215952;1293;23116;-63
2022/05/30 09:20:10;;;;;;;7.10;1.80;;;22.70;56.70;;;;;;216032;1290;22554;-62
2022/05/30 09:31:21;;;;;;;10.30;2.10;;;22.80;56.50;;;;;;216240;1290;24306;-66
2022/05/30 09:36:51;;;;;;;3.70;1.60;;;22.80;56.30;;;;;;215977;1291;22647;-62
2022/05/30 09:42:22;;;;;;;3.90;1.80;;;22.80;56.20;;;;;;215785;1293;24691;-61
2022/05/30 09:47:26;;;;;;;3.70;1.70;;;22.80;56.10;;;;;;216243;1290;25309;-63
2022/05/30 09:52:46;;;;;;;6.30;1.80;;;22.80;56.00;;;;;;216098;1290;22588;-63
2022/05/30 09:57:59;;;;;;;4.30;1.40;;;22.80;55.80;;;;;;215783;1293;22591;-63
2022/05/30 10:03:42;;;;;;;4.80;1.90;;;22.80;55.40;;;;;;216079;1290;22561;-61
2022/05/30 10:09:20;;;;;;;4.20;1.70;;;22.90;55.30;;;;;;215812;1293;22772;-62
2022/05/30 10:14:32;;;;;;;4.20;1.70;;;22.90;55.20;;;;;;216319;1290;22826;-62
2022/05/30 10:20:08;;;;;;;5.20;2.10;;;22.90;55.40;;;;;;216063;1290;22570;-62
2022/05/30 10:31:57;;;;;;;3.70;1.70;;;23.00;55.20;;;;;;216157;1290;22586;-60
2022/05/30 10:37:22;;;;;;;3.50;1.60;;;23.00;55.00;;;;;;216249;1293;24344;-61
2022/05/30 10:42:45;;;;;;;5.60;1.70;;;23.00;55.00;;;;;;215982;1293;24328;-63
2022/05/30 10:47:53;;;;;;;3.50;1.40;;;23.10;54.90;;;;;;216269;1290;23984;-63
2022/05/30 10:53:08;;;;;;;3.70;1.30;;;23.10;55.00;;;;;;216435;1290;25375;-61
2022/05/30 10:58:43;;;;;;;3.10;1.40;;;23.10;54.80;;;;;;215812;1291;24296;-62
2022/05/30 11:04:00;;;;;;;3.30;1.40;;;23.10;54.30;;;;;;216164;1290;22800;-63
2022/05/30 11:09:16;;;;;;;3.50;1.30;;;23.10;54.30;;;;;;216236;1290;22682;-61
2022/05/30 11:14:44;;;;;;;5.00;1.70;;;23.10;54.20;;;;;;216163;1290;24437;-62
2022/05/30 11:20:31;;;;;;;3.20;1.40;;;23.10;53.90;;;;;;215431;1290;24323;-63
2022/05/30 11:26:03;;;;;;;3.10;1.70;;;23.10;53.80;;;;;;216142;1291;22583;-61
2022/05/30 11:31:16;;;;;;;11.20;2.90;;;23.10;53.80;;;;;;216126;1290;22583;-60
2022/05/30 11:36:45;;;;;;;2.20;1.30;;;23.10;53.70;;;;;;216209;1290;22635;-61
2022/05/30 11:41:59;;;;;;;4.50;1.70;;;23.20;53.50;;;;;;216459;1290;24514;-60
2022/05/30 11:47:36;;;;;;;3.40;1.60;;;23.20;54.00;;;;;;216115;1290;25460;-61
2022/05/30 11:52:43;;;;;;;2.90;1.30;;;23.20;53.60;;;;;;216116;1290;22616;-60
2022/05/30 11:57:48;;;;;;;5.10;1.70;;;23.20;53.00;;;;;;216049;1290;24089;-60
2022/05/30 12:02:58;;;;;;;3.00;1.40;;;23.20;52.90;;;;;;216253;1291;22659;-64
2022/05/30 12:08:25;;;;;;;3.80;1.50;;;23.20;52.80;;;;;;216168;1290;27022;-62
2022/05/30 12:13:44;;;;;;;2.50;1.40;;;23.20;53.00;;;;;;216202;1290;26845;-58
2022/05/30 12:24:34;;;;;;;2.00;1.20;;;23.30;52.60;;;;;;216159;1291;25273;-61
2022/05/30 12:29:46;;;;;;;3.70;1.50;;;23.30;53.00;;;;;;216104;1294;22567;-61
2022/05/30 12:35:18;;;;;;;3.00;1.50;;;23.30;52.70;;;;;;216158;1291;24330;-62
2022/05/30 12:40:25;;;;;;;3.90;1.30;;;23.20;52.20;;;;;;216123;1291;25606;-60
2022/05/30 12:45:42;;;;;;;1.90;1.10;;;23.30;52.20;;;;;;216038;1290;25460;-61
2022/05/30 12:50:52;;;;;;;3.30;1.40;;;23.30;52.30;;;;;;216292;1294;25438;-61
2022/05/30 12:55:56;;;;;;;4.60;1.60;;;23.30;52.00;;;;;;216123;1293;25136;-61
2022/05/30 13:01:49;;;;;;;2.20;1.10;;;23.30;51.80;;;;;;216439;1290;25599;-60
2022/05/30 13:07:01;;;;;;;1.90;1.10;;;23.30;51.90;;;;;;216201;1290;24274;-62
2022/05/30 13:12:17;;;;;;;2.60;1.30;;;23.30;52.00;;;;;;216349;1290;23786;-62
2022/05/30 13:17:53;;;;;;;2.50;1.40;;;23.30;51.40;;;;;;216303;1290;22585;-60
2022/05/30 13:23:02;;;;;;;2.90;1.30;;;23.30;51.30;;;;;;215977;1296;23061;-61
2022/05/30 13:28:14;;;;;;;2.40;1.30;;;23.30;51.20;;;;;;215877;1294;24312;-61
2022/05/30 13:33:25;;;;;;;2.90;1.50;;;23.30;51.20;;;;;;216348;1290;25483;-63
2022/05/30 13:38:37;;;;;;;3.50;1.50;;;23.30;51.60;;;;;;216168;1293;23954;-60
2022/05/30 13:43:41;;;;;;;4.10;1.30;;;23.30;51.40;;;;;;216302;1290;22588;-57
2022/05/30 13:49:05;;;;;;;3.90;1.50;;;23.30;51.10;;;;;;216027;1291;24449;-62
2022/05/30 13:54:11;;;;;;;4.80;1.90;;;23.30;51.10;;;;;;216452;1290;26957;-62
2022/05/30 13:59:29;;;;;;;5.90;1.80;;;23.30;51.10;;;;;;215978;1291;25440;-61
2022/05/30 14:05:04;;;;;;;6.90;1.60;;;23.30;51.30;;;;;;216399;1289;25373;-61
2022/05/30 14:10:22;;;;;;;5.60;1.70;;;23.30;51.00;;;;;;216366;1290;22679;-61
2022/05/30 14:15:59;;;;;;;3.20;1.30;;;23.20;51.40;;;;;;216236;1291;22777;-61
2022/05/30 14:21:09;;;;;;;5.70;1.40;;;23.30;51.40;;;;;;216246;1290;22607;-63
2022/05/30 14:26:23;;;;;;;4.30;1.30;;;23.20;51.10;;;;;;216302;1291;22860;-64
2022/05/30 14:31:29;;;;;;;3.10;1.30;;;23.20;50.90;;;;;;216298;1290;22598;-62
2022/05/30 14:36:39;;;;;;;7.30;2.10;;;23.20;50.80;;;;;;215829;1293;25648;-59
2022/05/30 14:42:05;;;;;;;4.40;1.80;;;23.20;50.70;;;;;;216261;1290;24293;-60
2022/05/30 14:47:11;;;;;;;3.20;1.30;;;23.20;51.00;;;;;;216246;1290;22797;-61
2022/05/30 14:52:32;;;;;;;2.60;1.20;;;23.20;50.20;;;;;;216219;1290;22672;-62
2022/05/30 14:57:45;;;;;;;2.80;1.50;;;23.10;51.00;;;;;;216331;1290;24344;-60
2022/05/30 15:08:22;;;;;;;3.00;1.40;;;23.20;51.20;;;;;;216204;1290;22726;-62
2022/05/30 15:13:29;;;;;;;3.60;1.40;;;23.20;50.80;;;;;;216419;1290;26647;-61
2022/05/30 15:18:42;;;;;;;6.70;2.10;;;23.20;50.70;;;;;;216301;1291;22530;-62
2022/05/30 15:23:46;;;;;;;2.50;1.40;;;23.20;50.50;;;;;;216209;1291;22629;-63
2022/05/30 15:28:51;;;;;;;5.50;1.70;;;23.20;50.60;;;;;;216150;1290;22588;-60
2022/05/30 15:33:55;;;;;;;3.00;1.40;;;23.20;50.60;;;;;;216196;1290;22628;-64
2022/05/30 15:39:04;;;;;;;5.70;1.60;;;23.20;50.50;;;;;;216211;1294;25277;-59
2022/05/30 15:44:22;;;;;;;5.10;1.50;;;23.10;50.90;;;;;;216359;1290;26777;-61
2022/05/30 15:49:34;;;;;;;3.90;1.60;;;23.00;49.60;;;;;;216185;1290;22560;-65
2022/05/30 16:00:08;;;;;;;4.30;1.50;;;22.90;47.80;;;;;;216172;1291;24269;-60
2022/05/30 16:05:14;;;;;;;5.10;1.30;;;22.90;47.90;;;;;;216277;1290;25286;-62
2022/05/30 16:10:19;;;;;;;3.90;1.50;;;22.90;47.40;;;;;;216320;1290;24330;-60
2022/05/30 16:15:24;;;;;;;4.70;1.80;;;22.80;47.40;;;;;;216313;1290;22567;-61
2022/05/30 16:20:31;;;;;;;6.00;1.90;;;22.80;47.10;;;;;;216212;1290;25344;-61
2022/05/30 16:25:42;;;;;;;9.00;1.80;;;22.80;48.50;;;;;;215969;1290;23801;-58
2022/05/30 16:30:47;;;;;;;12.00;2.50;;;22.80;47.90;;;;;;216227;1290;23848;-61
2022/05/30 16:35:53;;;;;;;8.60;2.00;;;22.90;48.30;;;;;;215645;1293;22579;-58
2022/05/30 16:41:18;;;;;;;9.70;2.20;;;22.90;48.60;;;;;;215783;1293;24398;-59
2022/05/30 16:46:28;;;;;;;8.60;1.90;;;23.00;51.90;;;;;;215982;1290;25587;-61
2022/05/30 16:51:35;;;;;;;6.30;2.20;;;23.10;51.00;;;;;;216211;1290;25335;-60
2022/05/30 16:57:06;;;;;;;7.80;1.50;;;23.20;51.60;;;;;;215925;1293;22641;-56
2022/05/30 17:02:19;;;;;;;8.70;2.20;;;23.30;51.20;;;;;;215915;1290;24157;-60
2022/05/30 17:07:26;;;;;;;12.10;2.70;;;23.30;52.80;;;;;;215868;1290;22600;-61
2022/05/30 17:12:32;;;;;;;16.70;3.00;;;23.30;53.00;;;;;;215996;1290;25448;-59
2022/05/30 17:17:40;;;;;;;7.20;1.90;;;23.30;54.50;;;;;;215963;1290;25717;-60
2022/05/30 17:22:44;;;;;;;6.90;1.80;;;23.40;54.30;;;;;;216080;1290;25396;-62
2022/05/30 17:33:44;;;;;;;9.50;1.90;;;23.40;54.60;;;;;;216113;1290;24510;-61
2022/05/30 17:39:03;;;;;;;8.70;2.20;;;23.30;54.70;;;;;;216105;1290;25437;-63
2022/05/30 17:44:41;;;;;;;6.20;2.30;;;23.30;54.60;;;;;;215991;1290;24290;-62
2022/05/30 17:50:13;;;;;;;22.00;2.10;;;23.40;54.50;;;;;;216104;1291;22822;-61
2022/05/30 17:55:30;;;;;;;16.80;2.40;;;23.40;54.50;;;;;;215580;1293;24343;-64
2022/05/30 18:00:37;;;;;;;9.50;1.90;;;23.30;54.50;;;;;;215601;1293;22759;-63
2022/05/30 18:05:48;;;;;;;16.80;2.50;;;23.30;54.70;;;;;;215693;1293;24288;-59
2022/05/30 18:11:04;;;;;;;12.20;2.00;;;23.30;55.00;;;;;;215308;1293;25352;-60
2022/05/30 18:16:28;;;;;;;11.50;2.60;;;23.30;55.40;;;;;;215383;1293;26515;-57
2022/05/30 18:22:17;;;;;;;9.00;2.20;;;23.20;54.70;;;;;;216402;1290;22655;-61
2022/05/30 18:27:34;;;;;;;14.20;3.40;;;23.20;54.80;;;;;;215591;1290;22567;-60
2022/05/30 18:33:03;;;;;;;7.60;2.40;;;23.30;54.20;;;;;;216137;1290;22918;-60
2022/05/30 18:38:30;;;;;;;9.80;2.20;;;23.50;54.00;;;;;;215690;1293;24232;-58
2022/05/30 18:44:05;;;;;;;21.50;2.30;;;23.40;54.70;;;;;;215586;1293;24454;-63
2022/05/30 18:49:25;;;;;;;14.00;3.20;;;23.30;55.00;;;;;;216044;1290;25406;-63
2022/05/30 18:54:45;;;;;;;12.20;2.70;;;23.30;58.70;;;;;;216146;1291;22564;-61
2022/05/30 18:59:56;;;;;;;16.80;2.30;;;23.30;56.50;;;;;;215941;1290;24303;-62
2022/05/30 19:05:02;;;;;;;15.70;2.40;;;23.20;55.90;;;;;;216205;1290;22576;-62
2022/05/30 19:10:09;;;;;;;8.90;2.20;;;23.20;56.60;;;;;;215971;1292;25460;-62
2022/05/30 19:20:54;;;;;;;16.10;2.30;;;23.20;56.10;;;;;;215683;1290;357491;-59
2022/05/30 19:26:05;;;;;;;10.90;2.60;;;23.20;56.60;;;;;;215945;1291;25210;-62
2022/05/30 19:31:28;;;;;;;13.10;2.50;;;23.20;56.90;;;;;;215805;1290;22836;-61
2022/05/30 19:36:38;;;;;;;;;;;23.20;57.70;;;;;;216133;1290;25379;-60
2022/05/30 19:41:48;;;;;;;9.50;2.20;;;23.20;57.20;;;;;;215928;1291;25085;-60
2022/05/30 19:46:56;;;;;;;6.90;2.00;;;23.10;56.80;;;;;;215991;1289;25907;-60
2022/05/30 19:52:04;;;;;;;7.50;2.10;;;23.10;56.60;;;;;;216198;1290;25273;-59
2022/05/30 19:57:42;;;;;;;8.80;2.30;;;23.10;56.30;;;;;;215932;1294;25372;-61
2022/05/30 20:03:04;;;;;;;8.60;2.60;;;23.00;55.90;;;;;;215866;1290;22611;-59
2022/05/30 20:08:11;;;;;;;8.30;1.80;;;23.00;56.50;;;;;;215922;1290;24421;-59
2022/05/30 20:13:24;;;;;;;5.80;1.70;;;23.00;56.40;;;;;;216067;1290;22603;-58
2022/05/30 20:18:54;;;;;;;7.80;1.60;;;23.00;55.70;;;;;;215839;1290;22610;-58
2022/05/30 20:24:01;;;;;;;5.90;1.80;;;23.00;55.70;;;;;;215947;1293;23879;-60
2022/05/30 20:29:09;;;;;;;10.60;2.30;;;22.90;55.70;;;;;;215695;1290;22547;-57
2022/05/30 20:34:13;;;;;;;6.90;1.50;;;22.90;55.70;;;;;;215921;1290;23657;-58
2022/05/30 20:39:30;;;;;;;4.70;1.60;;;22.90;55.80;;;;;;215915;1290;22699;-56
2022/05/30 20:44:45;;;;;;;6.60;2.20;;;22.90;55.80;;;;;;215848;1290;25515;-58
2022/05/30 20:49:52;;;;;;;8.70;1.90;;;22.90;55.80;;;;;;215892;1290;24297;-61
2022/05/30 20:54:56;;;;;;;9.00;1.80;;;22.90;55.80;;;;;;215952;1290;22751;-61
2022/05/30 21:00:16;;;;;;;10.90;2.10;;;22.90;55.80;;;;;;215893;1291;24350;-62
2022/05/30 21:05:29;;;;;;;11.90;2.30;;;22.80;55.80;;;;;;216067;1290;22847;-60
2022/05/30 21:10:43;;;;;;;12.40;2.50;;;22.90;59.90;;;;;;215670;1293;22647;-61
2022/05/30 21:15:49;;;;;;;8.70;2.00;;;23.00;59.80;;;;;;216821;1290;22602;-57
2022/05/30 21:21:03;;;;;;;7.20;1.90;;;23.00;60.10;;;;;;215908;1290;22576;-62
2022/05/30 21:26:18;;;;;;;7.50;1.80;;;23.00;60.30;;;;;;215994;1290;22612;-58
2022/05/30 21:31:37;;;;;;;6.80;2.10;;;22.90;59.60;;;;;;215642;1290;24256;-56
2022/05/30 21:36:51;;;;;;;9.10;1.90;;;22.90;58.80;;;;;;219523;1290;23947;-59
2022/05/30 21:41:55;;;;;;;5.20;1.60;;;22.90;59.90;;;;;;216354;1290;22599;-59
2022/05/30 21:47:01;;;;;;;5.50;1.70;;;22.90;59.50;;;;;;216160;1290;22588;-61
2022/05/30 21:52:14;;;;;;;5.60;2.30;;;22.90;58.70;;;;;;216487;1290;22886;-61
2022/05/30 22:02:42;;;;;;;6.10;1.90;;;22.80;58.90;;;;;;216348;1290;25263;-57
2022/05/30 22:07:47;;;;;;;7.80;2.40;;;22.80;59.90;;;;;;216016;1290;25391;-61
2022/05/30 22:12:51;;;;;;;6.60;1.90;;;22.80;59.30;;;;;;216002;1291;23987;-59
2022/05/30 22:17:55;;;;;;;9.30;2.50;;;22.80;59.50;;;;;;216162;1290;22617;-61
2022/05/30 22:22:59;;;;;;;6.70;2.20;;;22.80;59.40;;;;;;216176;1290;22589;-62
2022/05/30 22:28:03;;;;;;;6.20;2.20;;;22.70;59.20;;;;;;216482;1290;22658;-61
2022/05/30 22:33:08;;;;;;;8.20;2.00;;;22.60;59.30;;;;;;216376;1290;24283;-59
2022/05/30 22:38:12;;;;;;;5.90;2.20;;;22.60;59.00;;;;;;216247;1293;22602;-61
2022/05/30 22:43:18;;;;;;;7.20;2.20;;;22.60;58.70;;;;;;216211;1291;22596;-62
2022/05/30 22:48:25;;;;;;;8.00;2.20;;;22.60;58.90;;;;;;216188;1291;25504;-58
2022/05/30 22:53:34;;;;;;;6.40;2.10;;;22.60;58.50;;;;;;216316;1290;23308;-61
2022/05/30 22:58:38;;;;;;;6.30;2.00;;;22.60;58.60;;;;;;216485;1290;26535;-60
2022/05/30 23:03:42;;;;;;;5.70;2.10;;;22.60;59.10;;;;;;216018;1293;22609;-60
2022/05/30 23:08:46;;;;;;;9.60;2.20;;;22.50;58.90;;;;;;216340;1290;24396;-61
2022/05/30 23:14:00;;;;;;;2.70;1.50;;;22.50;58.80;;;;;;216163;1290;22578;-61
2022/05/30 23:19:06;;;;;;;8.20;2.20;;;22.50;58.80;;;;;;216242;1290;25455;-61
2022/05/30 23:24:13;;;;;;;5.40;1.60;;;22.50;58.80;;;;;;216288;1290;22559;-60
2022/05/30 23:29:21;;;;;;;4.60;1.80;;;22.50;58.60;;;;;;216020;1293;22784;-60
2022/05/30 23:34:26;;;;;;;5.10;2.10;;;22.50;58.60;;;;;;216296;1290;24253;-60
2022/05/30 23:39:29;;;;;;;8.30;2.10;;;22.40;58.50;;;;;;216311;1290;22585;-61
2022/05/30 23:44:37;;;;;;;4.10;2.00;;;22.40;58.50;;;;;;216296;1290;25334;-62
2022/05/30 23:49:43;;;;;;;3.30;1.40;;;22.40;58.40;;;;;;216279;1290;25639;-60
2022/05/30 23:54:47;;;;;;;4.30;1.80;;;22.40;58.40;;;;;;216350;1290;22564;-60
2022/05/30 23:59:51;;;;;;;4.90;1.80;;;22.40;58.50;;;;;;216302;1290;24080;-61
